sensor_id;sensor_type;location;lat;lon;timestamp;P1;durP1;ratioP1;P2;durP2;ratioP2
28216;SDS011;15493;56.858;24.340;2023-07-31T08:11:46;5.00;;;3.38;;
28216;SDS011;15493;56.858;24.340;2023-07-31T08:14:13;6.32;;;3.60;;
28216;SDS011;15493;56.858;24.340;2023-07-31T08:16:40;3.92;;;3.33;;
28216;SDS011;15493;56.858;24.340;2023-07-31T08:19:08;6.20;;;2.75;;
28216;SDS011;15493;56.858;24.340;2023-07-31T08:21:36;7.75;;;3.22;;
28216;SDS011;15493;56.858;24.340;2023-07-31T08:24:03;5.97;;;3.40;;
28216;SDS011;15493;56.858;24.340;2023-07-31T08:26:30;3.47;;;3.17;;
28216;SDS011;15493;56.858;24.340;2023-07-31T08:28:57;7.68;;;4.13;;
28216;SDS011;15493;56.858;24.340;2023-07-31T08:31:25;5.13;;;3.38;;
28216;SDS011;15493;56.858;24.340;2023-07-31T08:33:53;6.20;;;3.45;;
28216;SDS011;15493;56.858;24.340;2023-07-31T08:36:20;4.57;;;3.70;;
28216;SDS011;15493;56.858;24.340;2023-07-31T08:38:47;5.65;;;4.10;;
28216;SDS011;15493;56.858;24.340;2023-07-31T08:41:16;5.40;;;3.90;;
28216;SDS011;15493;56.858;24.340;2023-07-31T08:43:46;7.72;;;4.63;;
28216;SDS011;15493;56.858;24.340;2023-07-31T08:46:13;8.23;;;4.35;;
28216;SDS011;15493;56.858;24.340;2023-07-31T08:48:44;9.70;;;4.60;;
28216;SDS011;15493;56.858;24.340;2023-07-31T08:51:11;4.95;;;3.92;;
28216;SDS011;15493;56.858;24.340;2023-07-31T08:53:38;4.73;;;4.33;;
28216;SDS011;15493;56.858;24.340;2023-07-31T08:56:06;7.45;;;5.85;;
28216;SDS011;15493;56.858;24.340;2023-07-31T08:58:33;6.28;;;4.63;;
28216;SDS011;15493;56.858;24.340;2023-07-31T09:01:03;5.75;;;5.05;;
28216;SDS011;15493;56.858;24.340;2023-07-31T09:03:33;5.53;;;4.97;;
28216;SDS011;15493;56.858;24.340;2023-07-31T09:06:02;9.38;;;5.97;;
28216;SDS011;15493;56.858;24.340;2023-07-31T09:08:32;8.40;;;6.40;;
28216;SDS011;15493;56.858;24.340;2023-07-31T09:11:02;8.30;;;5.60;;
28216;SDS011;15493;56.858;24.340;2023-07-31T09:13:31;6.95;;;6.25;;
28216;SDS011;15493;56.858;24.340;2023-07-31T09:15:58;6.30;;;5.80;;
28216;SDS011;15493;56.858;24.340;2023-07-31T09:18:25;10.52;;;6.32;;
28216;SDS011;15493;56.858;24.340;2023-07-31T09:21:14;6.25;;;5.75;;
28216;SDS011;15493;56.858;24.340;2023-07-31T09:23:44;5.85;;;5.32;;
28216;SDS011;15493;56.858;24.340;2023-07-31T09:26:13;9.70;;;6.75;;
28216;SDS011;15493;56.858;24.340;2023-07-31T09:28:55;6.97;;;6.38;;
28216;SDS011;15493;56.858;24.340;2023-07-31T09:31:42;7.68;;;6.53;;
28216;SDS011;15493;56.858;24.340;2023-07-31T09:34:10;7.20;;;6.45;;
28216;SDS011;15493;56.858;24.340;2023-07-31T10:45:33;4.00;;;2.88;;
28216;SDS011;15493;56.858;24.340;2023-07-31T10:48:20;7.75;;;3.65;;
28216;SDS011;15493;56.858;24.340;2023-07-31T10:50:51;3.50;;;3.17;;
28216;SDS011;15493;56.858;24.340;2023-07-31T10:53:25;3.13;;;2.72;;
28216;SDS011;15493;56.858;24.340;2023-07-31T10:55:53;3.40;;;2.75;;
28216;SDS011;15493;56.858;24.340;2023-07-31T10:58:20;4.28;;;2.83;;
28216;SDS011;15493;56.858;24.340;2023-07-31T11:00:48;2.75;;;2.55;;
28216;SDS011;15493;56.858;24.340;2023-07-31T11:03:16;2.63;;;2.42;;
28216;SDS011;15493;56.858;24.340;2023-07-31T11:05:51;2.63;;;2.17;;
28216;SDS011;15493;56.858;24.340;2023-07-31T11:08:26;3.28;;;2.58;;
28216;SDS011;15493;56.858;24.340;2023-07-31T11:13:31;6.30;;;2.00;;
28216;SDS011;15493;56.858;24.340;2023-07-31T11:15:59;1.67;;;1.50;;
28216;SDS011;15493;56.858;24.340;2023-07-31T11:18:26;2.53;;;2.13;;
28216;SDS011;15493;56.858;24.340;2023-07-31T11:20:54;4.13;;;1.63;;
28216;SDS011;15493;56.858;24.340;2023-07-31T11:23:22;2.22;;;1.38;;
28216;SDS011;15493;56.858;24.340;2023-07-31T11:30:45;2.60;;;1.83;;
28216;SDS011;15493;56.858;24.340;2023-07-31T12:00:14;6.43;;;1.60;;
28216;SDS011;15493;56.858;24.340;2023-07-31T12:02:42;1.50;;;1.40;;
28216;SDS011;15493;56.858;24.340;2023-07-31T13:31:10;1.00;;;0.90;;
28216;SDS011;15493;56.858;24.340;2023-07-31T13:33:37;1.20;;;0.80;;
28216;SDS011;15493;56.858;24.340;2023-07-31T13:36:09;1.73;;;1.02;;
28216;SDS011;15493;56.858;24.340;2023-07-31T14:03:15;3.25;;;0.90;;
28216;SDS011;15493;56.858;24.340;2023-07-31T14:05:43;0.75;;;0.73;;
28216;SDS011;15493;56.858;24.340;2023-07-31T14:08:10;0.68;;;0.68;;
28216;SDS011;15493;56.858;24.340;2023-07-31T14:10:37;0.80;;;0.80;;
28216;SDS011;15493;56.858;24.340;2023-07-31T14:13:04;1.02;;;0.93;;
28216;SDS011;15493;56.858;24.340;2023-07-31T14:15:31;1.30;;;1.10;;
28216;SDS011;15493;56.858;24.340;2023-07-31T14:18:02;1.67;;;1.08;;
28216;SDS011;15493;56.858;24.340;2023-07-31T14:20:29;1.10;;;1.00;;
28216;SDS011;15493;56.858;24.340;2023-07-31T14:22:56;2.28;;;1.08;;
28216;SDS011;15493;56.858;24.340;2023-07-31T14:25:24;4.03;;;0.95;;
28216;SDS011;15493;56.858;24.340;2023-07-31T14:27:51;2.65;;;2.05;;
28216;SDS011;15493;56.858;24.340;2023-07-31T14:30:18;1.83;;;1.02;;
28216;SDS011;15493;56.858;24.340;2023-07-31T14:32:46;1.95;;;0.93;;
28216;SDS011;15493;56.858;24.340;2023-07-31T14:35:13;1.30;;;1.00;;
28216;SDS011;15493;56.858;24.340;2023-07-31T14:37:41;1.85;;;1.10;;
28216;SDS011;15493;56.858;24.340;2023-07-31T14:40:09;1.35;;;1.15;;
28216;SDS011;15493;56.858;24.340;2023-07-31T14:42:37;1.17;;;1.08;;
28216;SDS011;15493;56.858;24.340;2023-07-31T15:12:04;1.80;;;1.20;;
28216;SDS011;15493;56.858;24.340;2023-07-31T15:14:31;0.98;;;0.80;;
28216;SDS011;15493;56.858;24.340;2023-07-31T15:34:13;0.85;;;0.70;;
28216;SDS011;15493;56.858;24.340;2023-07-31T15:46:29;1.15;;;0.80;;
28216;SDS011;15493;56.858;24.340;2023-07-31T15:48:56;0.90;;;0.77;;
28216;SDS011;15493;56.858;24.340;2023-07-31T15:51:23;1.15;;;0.85;;
28216;SDS011;15493;56.858;24.340;2023-07-31T15:53:53;3.08;;;0.90;;
28216;SDS011;15493;56.858;24.340;2023-07-31T15:56:20;0.63;;;0.60;;
28216;SDS011;15493;56.858;24.340;2023-07-31T15:58:47;2.67;;;1.00;;
28216;SDS011;15493;56.858;24.340;2023-07-31T16:01:16;1.15;;;0.82;;
28216;SDS011;15493;56.858;24.340;2023-07-31T16:03:44;0.60;;;0.60;;
28216;SDS011;15493;56.858;24.340;2023-07-31T16:06:11;0.60;;;0.60;;
28216;SDS011;15493;56.858;24.340;2023-07-31T16:08:38;1.17;;;0.80;;
28216;SDS011;15493;56.858;24.340;2023-07-31T16:11:08;0.90;;;0.60;;
28216;SDS011;15493;56.858;24.340;2023-07-31T16:13:35;0.65;;;0.63;;
28216;SDS011;15493;56.858;24.340;2023-07-31T16:16:02;0.77;;;0.65;;
28216;SDS011;15493;56.858;24.340;2023-07-31T16:18:30;2.13;;;0.77;;
28216;SDS011;15493;56.858;24.340;2023-07-31T16:20:57;0.90;;;0.60;;
28216;SDS011;15493;56.858;24.340;2023-07-31T16:23:25;0.63;;;0.63;;
28216;SDS011;15493;56.858;24.340;2023-07-31T16:25:52;2.47;;;0.70;;
28216;SDS011;15493;56.858;24.340;2023-07-31T16:28:19;1.38;;;0.90;;
28216;SDS011;15493;56.858;24.340;2023-07-31T16:30:46;1.73;;;0.60;;
28216;SDS011;15493;56.858;24.340;2023-07-31T16:33:13;0.55;;;0.50;;
28216;SDS011;15493;56.858;24.340;2023-07-31T16:35:41;0.77;;;0.57;;
28216;SDS011;15493;56.858;24.340;2023-07-31T16:38:08;1.33;;;0.90;;
28216;SDS011;15493;56.858;24.340;2023-07-31T16:40:36;1.15;;;0.80;;
28216;SDS011;15493;56.858;24.340;2023-07-31T16:43:03;2.38;;;0.63;;
28216;SDS011;15493;56.858;24.340;2023-07-31T16:45:30;5.82;;;1.52;;
28216;SDS011;15493;56.858;24.340;2023-07-31T16:47:57;1.58;;;0.80;;
28216;SDS011;15493;56.858;24.340;2023-07-31T16:50:25;2.17;;;0.68;;
28216;SDS011;15493;56.858;24.340;2023-07-31T16:52:52;0.95;;;0.80;;
28216;SDS011;15493;56.858;24.340;2023-07-31T16:55:19;0.95;;;0.70;;
28216;SDS011;15493;56.858;24.340;2023-07-31T16:57:47;1.98;;;0.73;;
28216;SDS011;15493;56.858;24.340;2023-07-31T17:00:14;1.05;;;1.00;;
28216;SDS011;15493;56.858;24.340;2023-07-31T17:02:42;0.60;;;0.60;;
28216;SDS011;15493;56.858;24.340;2023-07-31T17:05:09;2.80;;;0.60;;
28216;SDS011;15493;56.858;24.340;2023-07-31T17:07:37;3.00;;;0.52;;
28216;SDS011;15493;56.858;24.340;2023-07-31T17:10:04;4.35;;;0.60;;
28216;SDS011;15493;56.858;24.340;2023-07-31T17:12:31;0.70;;;0.50;;
28216;SDS011;15493;56.858;24.340;2023-07-31T17:14:59;4.03;;;0.60;;
28216;SDS011;15493;56.858;24.340;2023-07-31T17:17:26;0.50;;;0.50;;
28216;SDS011;15493;56.858;24.340;2023-07-31T17:19:54;2.05;;;0.60;;
28216;SDS011;15493;56.858;24.340;2023-07-31T17:22:21;4.32;;;0.85;;
28216;SDS011;15493;56.858;24.340;2023-07-31T17:30:01;1.20;;;0.60;;
28216;SDS011;15493;56.858;24.340;2023-07-31T17:32:29;2.15;;;0.77;;
28216;SDS011;15493;56.858;24.340;2023-07-31T17:34:56;3.72;;;0.70;;
28216;SDS011;15493;56.858;24.340;2023-07-31T17:37:24;1.65;;;0.75;;
28216;SDS011;15493;56.858;24.340;2023-07-31T17:39:51;1.73;;;1.42;;
28216;SDS011;15493;56.858;24.340;2023-07-31T17:42:18;5.53;;;3.97;;
28216;SDS011;15493;56.858;24.340;2023-07-31T17:44:45;10.77;;;7.03;;
28216;SDS011;15493;56.858;24.340;2023-07-31T17:47:13;15.20;;;8.85;;
28216;SDS011;15493;56.858;24.340;2023-07-31T17:49:40;3.20;;;1.65;;
28216;SDS011;15493;56.858;24.340;2023-07-31T17:52:07;6.28;;;1.50;;
28216;SDS011;15493;56.858;24.340;2023-07-31T17:54:34;1.67;;;1.58;;
28216;SDS011;15493;56.858;24.340;2023-07-31T17:57:01;2.67;;;2.00;;
28216;SDS011;15493;56.858;24.340;2023-07-31T17:59:29;2.47;;;1.85;;
28216;SDS011;15493;56.858;24.340;2023-07-31T18:01:56;2.67;;;1.67;;
28216;SDS011;15493;56.858;24.340;2023-07-31T18:04:23;4.57;;;1.70;;
28216;SDS011;15493;56.858;24.340;2023-07-31T18:06:50;2.40;;;2.20;;
28216;SDS011;15493;56.858;24.340;2023-07-31T18:09:18;2.65;;;1.50;;
28216;SDS011;15493;56.858;24.340;2023-07-31T18:11:45;1.90;;;1.80;;
28216;SDS011;15493;56.858;24.340;2023-07-31T18:14:12;1.70;;;1.60;;
28216;SDS011;15493;56.858;24.340;2023-07-31T18:16:40;3.92;;;1.85;;
28216;SDS011;15493;56.858;24.340;2023-07-31T18:19:08;1.75;;;1.65;;
28216;SDS011;15493;56.858;24.340;2023-07-31T18:21:35;2.00;;;1.63;;
28216;SDS011;15493;56.858;24.340;2023-07-31T18:24:03;2.60;;;2.40;;
28216;SDS011;15493;56.858;24.340;2023-07-31T18:26:31;4.40;;;1.88;;
28216;SDS011;15493;56.858;24.340;2023-07-31T18:28:59;3.85;;;2.35;;
28216;SDS011;15493;56.858;24.340;2023-07-31T18:31:26;5.57;;;2.90;;
28216;SDS011;15493;56.858;24.340;2023-07-31T18:33:53;4.43;;;2.42;;
28216;SDS011;15493;56.858;24.340;2023-07-31T18:36:20;2.05;;;1.80;;
28216;SDS011;15493;56.858;24.340;2023-07-31T18:38:48;10.93;;;1.42;;
28216;SDS011;15493;56.858;24.340;2023-07-31T18:41:16;2.63;;;1.50;;
28216;SDS011;15493;56.858;24.340;2023-07-31T18:43:43;3.42;;;1.40;;
28216;SDS011;15493;56.858;24.340;2023-07-31T18:46:10;3.05;;;2.05;;
28216;SDS011;15493;56.858;24.340;2023-07-31T18:48:38;1.95;;;1.40;;
28216;SDS011;15493;56.858;24.340;2023-07-31T18:51:05;1.98;;;1.38;;
28216;SDS011;15493;56.858;24.340;2023-07-31T19:08:16;3.80;;;1.40;;
28216;SDS011;15493;56.858;24.340;2023-07-31T20:14:33;2.33;;;1.48;;
28216;SDS011;15493;56.858;24.340;2023-07-31T20:17:00;4.05;;;1.60;;
28216;SDS011;15493;56.858;24.340;2023-07-31T20:19:27;2.95;;;1.42;;
28216;SDS011;15493;56.858;24.340;2023-07-31T20:21:54;2.00;;;1.80;;
28216;SDS011;15493;56.858;24.340;2023-07-31T20:24:22;2.00;;;1.88;;
28216;SDS011;15493;56.858;24.340;2023-07-31T20:26:49;2.63;;;1.48;;
28216;SDS011;15493;56.858;24.340;2023-07-31T20:29:16;4.40;;;1.65;;
28216;SDS011;15493;56.858;24.340;2023-07-31T20:31:43;1.88;;;1.70;;
28216;SDS011;15493;56.858;24.340;2023-07-31T20:34:11;5.07;;;1.55;;
28216;SDS011;15493;56.858;24.340;2023-07-31T20:36:38;2.63;;;1.60;;
28216;SDS011;15493;56.858;24.340;2023-07-31T20:39:06;1.75;;;1.60;;
28216;SDS011;15493;56.858;24.340;2023-07-31T20:41:34;2.97;;;1.50;;
